createdAt,value
2022-09-23T00:02:15.090Z,10.65
2022-09-23T00:05:16.953Z,10.68
2022-09-23T00:08:18.720Z,10.48
2022-09-23T00:11:28.575Z,10.26
2022-09-23T00:14:30.157Z,10.48
2022-09-23T00:17:32.680Z,10.51
2022-09-23T00:20:36.689Z,10.60
2022-09-23T00:23:40.722Z,10.67
2022-09-23T00:26:42.703Z,10.56
2022-09-23T00:29:44.427Z,10.83
2022-09-23T00:32:46.178Z,10.45
2022-09-23T00:35:48.129Z,10.34
2022-09-23T00:38:49.869Z,10.09
2022-09-23T00:41:52.405Z,10.06
2022-09-23T00:44:56.618Z,10.11
2022-09-23T00:48:02.211Z,10.31
2022-09-23T00:51:05.375Z,10.44
2022-09-23T00:54:07.951Z,10.48
2022-09-23T00:57:11.293Z,10.04
2022-09-23T01:00:13.759Z,10.07
2022-09-23T01:03:15.475Z,9.83
2022-09-23T01:06:17.405Z,9.50
2022-09-23T01:09:20.071Z,9.57
2022-09-23T01:12:39.666Z,9.55
2022-09-23T01:15:50.015Z,9.67
2022-09-23T01:19:22.182Z,10.05
2022-09-23T01:22:47.535Z,10.07
2022-09-23T01:26:29.832Z,9.99
2022-09-23T01:29:43.144Z,9.88
2022-09-23T01:33:14.365Z,9.78
2022-09-23T01:36:27.947Z,9.62
2022-09-23T01:39:37.809Z,9.58
2022-09-23T01:42:44.963Z,9.57
2022-09-23T01:45:48.555Z,9.47
2022-09-23T01:48:59.500Z,9.45
2022-09-23T01:52:15.691Z,9.36
2022-09-23T01:55:27.583Z,9.30
2022-09-23T01:58:42.149Z,9.16
2022-09-23T02:02:01.618Z,9.16
2022-09-23T02:05:19.911Z,9.20
2022-09-23T02:08:27.573Z,9.20
2022-09-23T02:11:29.189Z,9.20
2022-09-23T02:14:38.818Z,9.08
2022-09-23T02:17:52.030Z,8.99
2022-09-23T02:20:58.611Z,8.73
2022-09-23T02:24:27.528Z,8.76
2022-09-23T02:27:45.871Z,8.91
2022-09-23T02:30:57.791Z,8.88
2022-09-23T02:34:24.565Z,8.81
2022-09-23T02:37:37.318Z,8.67
2022-09-23T02:40:41.437Z,8.81
2022-09-23T02:43:54.175Z,8.68
2022-09-23T02:46:57.981Z,8.60
2022-09-23T02:50:00.011Z,8.74
2022-09-23T02:53:02.502Z,8.81
2022-09-23T02:56:22.039Z,8.74
2022-09-23T02:59:24.748Z,8.48
2022-09-23T03:02:41.899Z,8.36
2022-09-23T03:05:55.102Z,8.38
2022-09-23T03:09:05.720Z,8.38
2022-09-23T03:12:32.529Z,8.30
2022-09-23T03:16:00.139Z,7.86
2022-09-23T03:19:17.182Z,7.37
2022-09-23T03:22:41.042Z,7.37
2022-09-23T03:25:47.277Z,7.27
2022-09-23T03:28:50.424Z,7.22
2022-09-23T03:31:53.475Z,7.07
2022-09-23T03:34:58.487Z,7.18
2022-09-23T03:38:08.513Z,7.16
2022-09-23T03:41:16.769Z,6.81
2022-09-23T03:44:19.754Z,6.87
2022-09-23T03:47:21.919Z,6.95
2022-09-23T03:50:24.450Z,7.01
2022-09-23T03:53:26.158Z,6.75
2022-09-23T03:56:27.998Z,6.60
2022-09-23T03:59:32.996Z,6.33
2022-09-23T04:02:34.902Z,6.18
2022-09-23T04:05:36.741Z,6.23
2022-09-23T04:08:38.595Z,6.46
2022-09-23T04:11:40.544Z,6.43
2022-09-23T04:14:42.851Z,6.42
2022-09-23T04:17:44.514Z,6.55
2022-09-23T04:20:46.433Z,6.60
2022-09-23T04:23:50.684Z,6.40
2022-09-23T04:26:54.116Z,6.16
2022-09-23T04:29:55.731Z,6.20
2022-09-23T04:32:57.474Z,6.28
2022-09-23T04:35:59.586Z,6.45
2022-09-23T04:39:01.578Z,6.29
2022-09-23T04:42:04.435Z,6.39
2022-09-23T04:45:06.677Z,6.29
2022-09-23T04:48:09.622Z,6.37
2022-09-23T04:51:14.783Z,6.52
2022-09-23T04:54:16.609Z,6.07
2022-09-23T04:57:18.165Z,5.88
2022-09-23T05:00:19.941Z,6.26
2022-09-23T05:03:21.846Z,6.29
2022-09-23T05:06:25.169Z,5.95
2022-09-23T05:09:26.961Z,6.40
2022-09-23T05:12:28.897Z,6.65
2022-09-23T05:15:30.489Z,6.90
2022-09-23T05:18:35.528Z,6.74
2022-09-23T05:21:38.147Z,6.60
2022-09-23T05:24:46.241Z,6.75
2022-09-23T05:27:52.917Z,6.87
2022-09-23T05:31:02.947Z,7.14
2022-09-23T05:34:05.476Z,7.41
2022-09-23T05:37:07.271Z,7.34
2022-09-23T05:40:09.392Z,7.39
2022-09-23T05:43:11.252Z,7.64
2022-09-23T05:46:15.814Z,7.86
2022-09-23T05:49:17.656Z,8.20
2022-09-23T05:52:21.753Z,8.22
2022-09-23T05:55:23.536Z,8.30
2022-09-23T05:58:25.529Z,8.49
2022-09-23T06:01:32.172Z,8.69
2022-09-23T06:04:33.867Z,8.85
2022-09-23T06:07:35.682Z,8.93
2022-09-23T06:10:42.229Z,9.20
2022-09-23T06:13:46.585Z,9.42
2022-09-23T06:20:22.707Z,9.42
2022-09-23T06:23:26.518Z,9.71
2022-09-23T06:26:35.161Z,9.90
2022-09-23T06:29:40.128Z,9.85
2022-09-23T06:32:47.788Z,9.77
2022-09-23T06:35:58.014Z,10.04
2022-09-23T06:39:02.581Z,10.11
2022-09-23T06:42:06.839Z,10.28
2022-09-23T06:45:13.037Z,10.43
2022-09-23T06:48:14.850Z,10.96
2022-09-23T06:51:19.362Z,11.17
2022-09-23T06:54:21.320Z,11.60
2022-09-23T06:57:32.213Z,11.41
2022-09-23T07:00:34.123Z,11.38
2022-09-23T07:03:36.626Z,11.72
2022-09-23T07:06:39.460Z,12.08
2022-09-23T07:09:41.228Z,12.06
2022-09-23T07:12:43.060Z,12.27
2022-09-23T07:15:58.468Z,12.71
2022-09-23T07:19:00.410Z,13.05
2022-09-23T07:22:02.531Z,12.93
2022-09-23T07:25:06.043Z,13.38
2022-09-23T07:28:08.261Z,13.79
2022-09-23T07:31:12.977Z,14.04
2022-09-23T07:34:14.939Z,13.85
2022-09-23T07:37:17.920Z,13.65
2022-09-23T07:40:19.617Z,13.40
2022-09-23T07:43:22.360Z,13.45
2022-09-23T07:46:24.004Z,13.70
2022-09-23T07:49:27.530Z,14.32
2022-09-23T07:52:29.108Z,14.10
2022-09-23T07:55:30.874Z,14.04
2022-09-23T07:58:33.960Z,13.71
2022-09-23T08:01:42.743Z,13.65
2022-09-23T08:04:44.697Z,13.52
2022-09-23T08:07:46.504Z,15.70
2022-09-23T08:10:48.089Z,17.64
2022-09-23T08:13:49.935Z,19.91
2022-09-23T08:16:52.405Z,21.14
2022-09-23T08:19:54.208Z,22.28
2022-09-23T08:22:55.955Z,22.77
2022-09-23T08:26:00.145Z,24.58
2022-09-23T08:29:02.223Z,24.87
2022-09-23T08:32:04.024Z,24.56
2022-09-23T08:35:06.090Z,25.27
2022-09-23T08:38:08.161Z,26.15
2022-09-23T08:41:21.855Z,25.49
2022-09-23T08:44:42.711Z,25.89
2022-09-23T08:47:49.151Z,26.83
2022-09-23T08:50:59.803Z,26.33
2022-09-23T08:54:01.945Z,22.36
2022-09-23T08:57:05.684Z,22.67
2022-09-23T09:00:14.345Z,22.15
2022-09-23T09:03:48.226Z,23.31
2022-09-23T09:07:31.767Z,23.49
2022-09-23T09:10:33.433Z,25.04
2022-09-23T09:13:43.416Z,26.69
2022-09-23T09:17:00.117Z,27.07
2022-09-23T09:20:06.438Z,25.84
2022-09-23T09:23:07.924Z,26.84
2022-09-23T09:26:19.720Z,29.22
2022-09-23T09:29:35.903Z,30.41
2022-09-23T09:33:07.024Z,30.19
2022-09-23T09:36:30.867Z,30.35
2022-09-23T09:39:36.488Z,29.71
2022-09-23T09:42:40.577Z,30.30
2022-09-23T09:45:57.696Z,30.68
2022-09-23T09:49:11.479Z,31.16
2022-09-23T09:52:28.800Z,30.54
2022-09-23T09:55:30.613Z,28.72
2022-09-23T09:58:44.004Z,27.05
2022-09-23T10:01:48.745Z,23.21
2022-09-23T10:04:57.008Z,23.74
2022-09-23T10:08:36.994Z,21.10
2022-09-23T10:11:40.555Z,19.69
2022-09-23T10:14:43.459Z,19.08
2022-09-23T10:17:50.593Z,18.76
2022-09-23T10:20:52.136Z,17.42
2022-09-23T10:23:58.176Z,17.20
2022-09-23T10:27:12.087Z,16.84
2022-09-23T10:30:21.832Z,16.82
2022-09-23T10:33:27.924Z,16.58
2022-09-23T10:36:32.804Z,16.62
2022-09-23T10:39:52.837Z,17.12
2022-09-23T10:43:38.185Z,16.75
2022-09-23T10:47:25.760Z,17.02
2022-09-23T10:50:49.064Z,17.40
2022-09-23T10:54:27.299Z,16.92
2022-09-23T10:58:00.663Z,17.20
2022-09-23T11:01:27.450Z,17.15
2022-09-23T11:04:52.606Z,17.01
2022-09-23T11:08:10.640Z,17.50
2022-09-23T11:11:34.109Z,17.21
2022-09-23T11:14:58.820Z,17.42
2022-09-23T11:18:45.942Z,17.53
2022-09-23T11:22:02.491Z,17.41
2022-09-23T11:25:25.659Z,16.51
2022-09-23T11:28:40.202Z,16.50
2022-09-23T11:31:52.552Z,16.82
2022-09-23T11:35:12.145Z,16.17
2022-09-23T11:38:26.107Z,16.46
2022-09-23T11:41:36.498Z,16.97
2022-09-23T11:44:49.965Z,17.80
2022-09-23T11:48:26.107Z,17.58
2022-09-23T11:52:01.598Z,17.22
2022-09-23T11:55:22.943Z,17.53
2022-09-23T11:58:31.535Z,17.24
2022-09-23T12:01:41.104Z,17.74
2022-09-23T12:05:08.147Z,18.02
2022-09-23T12:08:23.620Z,18.26
2022-09-23T12:11:51.025Z,18.48
2022-09-23T12:15:13.543Z,18.51
2022-09-23T12:18:30.455Z,17.94
2022-09-23T12:22:06.024Z,17.68
2022-09-23T12:25:35.688Z,17.51
2022-09-23T12:28:41.498Z,17.80
2022-09-23T12:31:46.702Z,17.65
2022-09-23T12:34:52.018Z,17.58
2022-09-23T12:37:54.621Z,17.82
2022-09-23T12:40:56.798Z,17.88
2022-09-23T12:44:12.463Z,17.60
2022-09-23T12:47:26.370Z,17.29
2022-09-23T12:54:22.543Z,17.00
2022-09-23T12:57:33.469Z,17.13
2022-09-23T13:00:35.467Z,16.96
2022-09-23T13:04:04.459Z,17.16
2022-09-23T13:07:09.429Z,16.91
2022-09-23T13:10:29.159Z,16.36
2022-09-23T13:14:00.508Z,16.54
2022-09-23T13:17:02.121Z,16.90
2022-09-23T13:20:36.550Z,17.18
2022-09-23T13:23:38.444Z,17.06
2022-09-23T13:26:45.714Z,16.30
2022-09-23T13:29:59.436Z,16.58
2022-09-23T13:33:14.099Z,16.12
2022-09-23T13:36:20.118Z,16.56
2022-09-23T13:39:27.995Z,20.37
2022-09-23T13:42:30.520Z,21.82
2022-09-23T13:45:38.235Z,25.45
2022-09-23T13:48:43.350Z,27.05
2022-09-23T13:51:45.488Z,27.12
2022-09-23T13:54:50.048Z,28.50
2022-09-23T13:58:05.284Z,27.23
2022-09-23T14:01:34.958Z,24.17
2022-09-23T14:04:36.817Z,21.34
2022-09-23T14:07:38.699Z,20.68
2022-09-23T14:10:42.986Z,20.06
2022-09-23T14:13:47.166Z,18.52
2022-09-23T14:16:51.207Z,18.80
2022-09-23T14:19:52.973Z,18.20
2022-09-23T14:23:10.846Z,18.47
2022-09-23T14:26:12.481Z,18.33
2022-09-23T14:29:20.118Z,17.39
2022-09-23T14:32:25.956Z,17.39
2022-09-23T14:35:42.346Z,17.50
2022-09-23T14:38:53.024Z,17.12
2022-09-23T14:41:54.970Z,17.26
2022-09-23T14:44:56.794Z,17.19
2022-09-23T14:48:01.464Z,17.22
2022-09-23T14:51:08.666Z,17.13
2022-09-23T14:54:26.618Z,17.31
2022-09-23T14:57:32.199Z,17.07
2022-09-23T15:00:33.882Z,17.01
2022-09-23T15:03:47.811Z,16.79
2022-09-23T15:06:54.103Z,16.74
2022-09-23T15:09:55.940Z,16.53
2022-09-23T15:13:07.530Z,16.38
2022-09-23T15:16:09.494Z,16.34
2022-09-23T15:19:19.274Z,16.19
2022-09-23T15:22:21.266Z,16.50
2022-09-23T15:25:33.882Z,16.15
2022-09-23T15:28:35.615Z,16.31
2022-09-23T15:31:37.718Z,16.26
2022-09-23T15:34:39.482Z,16.03
2022-09-23T15:37:43.112Z,16.03
2022-09-23T15:40:44.795Z,15.98
2022-09-23T15:43:47.336Z,15.59
2022-09-23T15:46:51.956Z,15.62
2022-09-23T15:49:53.897Z,15.69
2022-09-23T15:52:55.776Z,15.69
2022-09-23T15:55:58.793Z,15.60
2022-09-23T15:59:00.941Z,15.48
2022-09-23T16:02:08.048Z,15.57
2022-09-23T16:05:36.751Z,15.37
2022-09-23T16:08:39.168Z,15.26
2022-09-23T16:11:46.163Z,14.88
2022-09-23T16:14:47.878Z,14.94
2022-09-23T16:17:50.530Z,14.92
2022-09-23T16:20:52.469Z,14.75
2022-09-23T16:23:57.597Z,14.67
2022-09-23T16:27:04.164Z,14.59
2022-09-23T16:30:07.124Z,14.24
2022-09-23T16:33:08.893Z,14.23
2022-09-23T16:36:31.182Z,14.05
2022-09-23T16:39:33.145Z,14.09
2022-09-23T16:42:35.189Z,13.96
2022-09-23T16:45:36.910Z,13.84
2022-09-23T16:48:40.640Z,13.95
2022-09-23T16:51:42.546Z,13.84
2022-09-23T16:54:45.191Z,13.83
2022-09-23T16:57:46.908Z,13.86
2022-09-23T17:01:07.291Z,13.69
2022-09-23T17:04:10.636Z,13.75
2022-09-23T17:07:12.849Z,13.83
2022-09-23T17:10:15.203Z,13.81
2022-09-23T17:13:17.418Z,13.81
2022-09-23T17:16:31.565Z,13.66
2022-09-23T17:19:34.662Z,13.54
2022-09-23T17:22:36.233Z,13.41
2022-09-23T17:25:38.032Z,13.20
2022-09-23T17:28:39.583Z,12.98
2022-09-23T17:31:41.389Z,12.89
2022-09-23T17:34:44.102Z,12.86
2022-09-23T17:37:47.674Z,12.64
2022-09-23T17:40:54.525Z,12.59
2022-09-23T17:43:58.440Z,12.51
2022-09-23T17:47:00.754Z,12.42
2022-09-23T17:50:02.363Z,12.57
2022-09-23T17:53:05.197Z,12.39
2022-09-23T17:56:19.088Z,12.39
2022-09-23T17:59:21.605Z,12.30
2022-09-23T18:02:23.576Z,12.35
2022-09-23T18:05:25.411Z,12.26
2022-09-23T18:08:30.643Z,12.10
2022-09-23T18:11:35.838Z,12.03
2022-09-23T18:14:37.399Z,11.87
2022-09-23T18:17:39.204Z,11.86
2022-09-23T18:20:40.991Z,11.81
2022-09-23T18:23:42.583Z,11.99
2022-09-23T18:26:46.156Z,11.94
2022-09-23T18:29:47.996Z,12.00
2022-09-23T18:32:50.062Z,12.02
2022-09-23T18:35:54.516Z,12.15
2022-09-23T18:38:56.808Z,12.27
2022-09-23T18:41:58.468Z,11.84
2022-09-23T18:45:00.089Z,12.00
2022-09-23T18:48:21.128Z,11.98
2022-09-23T18:51:25.767Z,11.70
2022-09-23T18:54:28.925Z,11.97
2022-09-23T18:57:30.675Z,11.75
2022-09-23T19:00:32.315Z,11.67
2022-09-23T19:03:36.074Z,11.63
2022-09-23T19:06:38.029Z,11.48
2022-09-23T19:09:39.807Z,11.47
2022-09-23T19:12:41.576Z,11.35
2022-09-23T19:15:43.466Z,11.21
2022-09-23T19:18:48.681Z,11.03
2022-09-23T19:21:50.304Z,10.91
2022-09-23T19:24:52.132Z,10.85
2022-09-23T19:27:53.930Z,10.86
2022-09-23T19:30:56.183Z,10.57
2022-09-23T19:34:00.599Z,10.52
2022-09-23T19:37:04.576Z,10.53
2022-09-23T19:40:07.278Z,10.48
2022-09-23T19:43:09.056Z,10.66
2022-09-23T19:46:10.775Z,10.78
2022-09-23T19:49:13.026Z,10.70
2022-09-23T19:52:14.913Z,10.70
2022-09-23T19:55:16.765Z,10.66
2022-09-23T19:58:18.399Z,10.71
2022-09-23T20:01:22.248Z,10.81
2022-09-23T20:04:24.110Z,10.44
2022-09-23T20:07:25.955Z,10.52
2022-09-23T20:10:27.536Z,10.25
2022-09-23T20:13:29.221Z,9.98
2022-09-23T20:16:32.987Z,10.01
2022-09-23T20:19:34.864Z,9.99
2022-09-23T20:22:37.019Z,9.69
2022-09-23T20:25:57.313Z,9.75
2022-09-23T20:29:02.381Z,9.67
2022-09-23T20:32:04.829Z,9.59
2022-09-23T20:35:07.429Z,9.90
2022-09-23T20:38:09.620Z,9.96
2022-09-23T20:41:11.549Z,9.98
2022-09-23T20:44:13.915Z,9.90
2022-09-23T20:47:17.922Z,9.83
2022-09-23T20:50:19.543Z,10.21
2022-09-23T20:53:23.287Z,10.39
2022-09-23T20:56:25.344Z,10.44
2022-09-23T20:59:27.576Z,10.46
2022-09-23T21:02:29.563Z,10.49
2022-09-23T21:05:31.157Z,10.40
2022-09-23T21:08:34.756Z,10.23
2022-09-23T21:11:36.324Z,10.24
2022-09-23T21:14:38.043Z,10.41
2022-09-23T21:17:39.610Z,10.38
2022-09-23T21:20:42.198Z,10.24
2022-09-23T21:23:44.139Z,10.39
2022-09-23T21:26:47.411Z,10.25
2022-09-23T21:29:49.110Z,10.21
2022-09-23T21:32:50.860Z,9.65
2022-09-23T21:35:56.843Z,9.68
2022-09-23T21:39:01.990Z,9.53
2022-09-23T21:42:04.052Z,9.80
2022-09-23T21:45:06.744Z,9.72
2022-09-23T21:48:08.294Z,9.79
2022-09-23T21:51:14.134Z,9.96
2022-09-23T21:54:16.975Z,9.75
2022-09-23T21:57:18.556Z,9.86
2022-09-23T22:00:20.366Z,9.92
2022-09-23T22:03:22.350Z,9.67
2022-09-23T22:06:27.169Z,9.43
2022-09-23T22:09:28.976Z,9.32
2022-09-23T22:12:30.851Z,9.11
2022-09-23T22:15:36.905Z,8.71
2022-09-23T22:18:38.480Z,8.53
2022-09-23T22:21:42.282Z,8.50
2022-09-23T22:24:46.182Z,8.54
2022-09-23T22:28:07.052Z,8.32
2022-09-23T22:31:27.530Z,8.54
2022-09-23T22:34:48.522Z,8.61
2022-09-23T22:37:50.976Z,8.31
2022-09-23T22:40:53.335Z,8.26
2022-09-23T22:43:55.829Z,8.23
2022-09-23T22:46:59.240Z,8.13
2022-09-23T22:50:01.963Z,8.24
2022-09-23T22:53:04.162Z,8.27
2022-09-23T22:56:06.086Z,8.17
2022-09-23T22:59:10.212Z,8.07
2022-09-23T23:02:12.090Z,7.94
2022-09-23T23:05:14.905Z,7.98
2022-09-23T23:08:17.575Z,7.96
2022-09-23T23:11:19.233Z,8.17
2022-09-23T23:14:21.826Z,7.91
2022-09-23T23:17:23.845Z,8.10
2022-09-23T23:20:26.011Z,8.38
2022-09-23T23:23:27.818Z,8.24
2022-09-23T23:26:31.038Z,8.16
2022-09-23T23:29:32.908Z,8.02
2022-09-23T23:32:34.838Z,7.93
2022-09-23T23:35:36.400Z,7.79
2022-09-23T23:38:40.362Z,7.80
2022-09-23T23:41:43.808Z,7.91
2022-09-23T23:44:45.664Z,7.61
2022-09-23T23:47:47.637Z,7.50
2022-09-23T23:50:58.214Z,7.63
2022-09-23T23:54:00.056Z,7.58
2022-09-23T23:57:01.812Z,7.67
